sensor_id;sensor_type;location;lat;lon;timestamp;P1;durP1;ratioP1;P2;durP2;ratioP2
46210;SDS011;52144;48.040;-1.594;2022-12-15T00:02:27;3.95;;;3.65;;
46210;SDS011;52144;48.040;-1.594;2022-12-15T00:05:12;5.40;;;3.55;;
46210;SDS011;52144;48.040;-1.594;2022-12-15T00:08:04;12.15;;;4.68;;
46210;SDS011;52144;48.040;-1.594;2022-12-15T00:10:49;5.18;;;3.80;;
46210;SDS011;52144;48.040;-1.594;2022-12-15T00:13:35;7.82;;;3.72;;
46210;SDS011;52144;48.040;-1.594;2022-12-15T00:16:20;8.07;;;4.80;;
46210;SDS011;52144;48.040;-1.594;2022-12-15T00:19:07;6.93;;;3.67;;
46210;SDS011;52144;48.040;-1.594;2022-12-15T00:21:53;9.68;;;5.13;;
46210;SDS011;52144;48.040;-1.594;2022-12-15T00:24:38;6.40;;;3.80;;
46210;SDS011;52144;48.040;-1.594;2022-12-15T00:27:23;11.25;;;5.20;;
46210;SDS011;52144;48.040;-1.594;2022-12-15T00:30:09;7.25;;;4.15;;
46210;SDS011;52144;48.040;-1.594;2022-12-15T00:32:55;6.05;;;3.67;;
46210;SDS011;52144;48.040;-1.594;2022-12-15T00:35:42;10.25;;;4.38;;
46210;SDS011;52144;48.040;-1.594;2022-12-15T00:38:27;6.65;;;4.32;;
46210;SDS011;52144;48.040;-1.594;2022-12-15T00:41:08;7.78;;;4.18;;
46210;SDS011;52144;48.040;-1.594;2022-12-15T00:43:37;8.68;;;4.45;;
46210;SDS011;52144;48.040;-1.594;2022-12-15T00:46:05;7.15;;;4.35;;
46210;SDS011;52144;48.040;-1.594;2022-12-15T00:48:50;6.63;;;4.50;;
46210;SDS011;52144;48.040;-1.594;2022-12-15T00:51:20;7.20;;;4.63;;
46210;SDS011;52144;48.040;-1.594;2022-12-15T00:53:46;7.25;;;4.85;;
46210;SDS011;52144;48.040;-1.594;2022-12-15T00:56:31;8.13;;;4.03;;
46210;SDS011;52144;48.040;-1.594;2022-12-15T00:59:17;10.43;;;4.57;;
46210;SDS011;52144;48.040;-1.594;2022-12-15T01:02:02;6.15;;;3.42;;
46210;SDS011;52144;48.040;-1.594;2022-12-15T01:04:48;6.88;;;3.97;;
46210;SDS011;52144;48.040;-1.594;2022-12-15T01:07:34;3.40;;;2.80;;
46210;SDS011;52144;48.040;-1.594;2022-12-15T01:10:20;7.68;;;4.28;;
46210;SDS011;52144;48.040;-1.594;2022-12-15T01:13:05;8.57;;;4.65;;
46210;SDS011;52144;48.040;-1.594;2022-12-15T01:15:50;13.55;;;5.57;;
46210;SDS011;52144;48.040;-1.594;2022-12-15T01:18:36;9.30;;;6.13;;
46210;SDS011;52144;48.040;-1.594;2022-12-15T01:21:21;9.52;;;5.72;;
46210;SDS011;52144;48.040;-1.594;2022-12-15T01:23:53;8.98;;;4.53;;
46210;SDS011;52144;48.040;-1.594;2022-12-15T01:26:20;12.63;;;5.45;;
46210;SDS011;52144;48.040;-1.594;2022-12-15T01:28:48;9.20;;;4.50;;
46210;SDS011;52144;48.040;-1.594;2022-12-15T01:31:16;10.93;;;4.68;;
46210;SDS011;52144;48.040;-1.594;2022-12-15T01:33:44;7.22;;;4.28;;
46210;SDS011;52144;48.040;-1.594;2022-12-15T01:36:12;10.13;;;5.65;;
46210;SDS011;52144;48.040;-1.594;2022-12-15T01:38:40;13.68;;;5.35;;
46210;SDS011;52144;48.040;-1.594;2022-12-15T01:41:09;8.10;;;4.22;;
46210;SDS011;52144;48.040;-1.594;2022-12-15T01:43:39;5.43;;;4.63;;
46210;SDS011;52144;48.040;-1.594;2022-12-15T01:46:08;6.65;;;4.43;;
46210;SDS011;52144;48.040;-1.594;2022-12-15T01:48:39;9.02;;;4.70;;
46210;SDS011;52144;48.040;-1.594;2022-12-15T01:51:10;11.73;;;6.00;;
46210;SDS011;52144;48.040;-1.594;2022-12-15T01:53:44;6.97;;;4.93;;
46210;SDS011;52144;48.040;-1.594;2022-12-15T01:56:19;7.60;;;4.47;;
46210;SDS011;52144;48.040;-1.594;2022-12-15T01:58:48;9.57;;;5.28;;
46210;SDS011;52144;48.040;-1.594;2022-12-15T02:01:19;12.02;;;5.38;;
46210;SDS011;52144;48.040;-1.594;2022-12-15T02:03:47;11.50;;;4.82;;
46210;SDS011;52144;48.040;-1.594;2022-12-15T02:06:15;11.15;;;6.05;;
46210;SDS011;52144;48.040;-1.594;2022-12-15T02:08:47;11.40;;;4.85;;
46210;SDS011;52144;48.040;-1.594;2022-12-15T02:14:13;14.10;;;5.72;;
46210;SDS011;52144;48.040;-1.594;2022-12-15T02:16:57;9.60;;;4.97;;
46210;SDS011;52144;48.040;-1.594;2022-12-15T02:19:43;12.07;;;7.32;;
46210;SDS011;52144;48.040;-1.594;2022-12-15T02:22:31;10.55;;;5.97;;
46210;SDS011;52144;48.040;-1.594;2022-12-15T02:28:01;13.68;;;7.63;;
46210;SDS011;52144;48.040;-1.594;2022-12-15T02:30:36;12.48;;;5.88;;
46210;SDS011;52144;48.040;-1.594;2022-12-15T02:33:12;9.55;;;6.05;;
46210;SDS011;52144;48.040;-1.594;2022-12-15T02:35:48;13.82;;;5.80;;
46210;SDS011;52144;48.040;-1.594;2022-12-15T02:38:29;11.18;;;5.93;;
46210;SDS011;52144;48.040;-1.594;2022-12-15T02:40:59;11.02;;;5.82;;
46210;SDS011;52144;48.040;-1.594;2022-12-15T02:43:28;13.07;;;7.93;;
46210;SDS011;52144;48.040;-1.594;2022-12-15T02:46:07;10.85;;;6.43;;
46210;SDS011;52144;48.040;-1.594;2022-12-15T02:48:47;9.90;;;6.47;;
46210;SDS011;52144;48.040;-1.594;2022-12-15T02:51:32;9.55;;;7.40;;
46210;SDS011;52144;48.040;-1.594;2022-12-15T02:54:18;10.13;;;4.97;;
46210;SDS011;52144;48.040;-1.594;2022-12-15T02:57:09;12.07;;;6.20;;
46210;SDS011;52144;48.040;-1.594;2022-12-15T02:59:44;11.85;;;6.85;;
46210;SDS011;52144;48.040;-1.594;2022-12-15T03:02:22;9.15;;;5.63;;
46210;SDS011;52144;48.040;-1.594;2022-12-15T03:04:53;9.57;;;6.53;;
46210;SDS011;52144;48.040;-1.594;2022-12-15T03:07:22;15.55;;;6.97;;
46210;SDS011;52144;48.040;-1.594;2022-12-15T03:09:53;10.32;;;5.63;;
46210;SDS011;52144;48.040;-1.594;2022-12-15T03:12:21;12.65;;;6.45;;
46210;SDS011;52144;48.040;-1.594;2022-12-15T03:14:49;16.10;;;8.07;;
46210;SDS011;52144;48.040;-1.594;2022-12-15T03:17:17;11.00;;;7.18;;
46210;SDS011;52144;48.040;-1.594;2022-12-15T03:19:47;15.20;;;7.07;;
46210;SDS011;52144;48.040;-1.594;2022-12-15T03:22:15;14.85;;;6.80;;
46210;SDS011;52144;48.040;-1.594;2022-12-15T03:24:43;11.57;;;7.00;;
46210;SDS011;52144;48.040;-1.594;2022-12-15T03:27:10;15.77;;;7.97;;
46210;SDS011;52144;48.040;-1.594;2022-12-15T03:29:39;14.35;;;6.07;;
46210;SDS011;52144;48.040;-1.594;2022-12-15T03:32:07;11.02;;;5.88;;
46210;SDS011;52144;48.040;-1.594;2022-12-15T03:34:35;9.63;;;5.47;;
46210;SDS011;52144;48.040;-1.594;2022-12-15T03:37:04;13.35;;;7.65;;
46210;SDS011;52144;48.040;-1.594;2022-12-15T03:39:32;15.60;;;7.55;;
46210;SDS011;52144;48.040;-1.594;2022-12-15T03:42:00;16.60;;;7.93;;
46210;SDS011;52144;48.040;-1.594;2022-12-15T03:44:28;10.68;;;6.15;;
46210;SDS011;52144;48.040;-1.594;2022-12-15T03:46:56;8.23;;;5.55;;
46210;SDS011;52144;48.040;-1.594;2022-12-15T03:49:28;14.68;;;7.32;;
46210;SDS011;52144;48.040;-1.594;2022-12-15T03:51:56;17.48;;;8.30;;
46210;SDS011;52144;48.040;-1.594;2022-12-15T03:54:25;11.27;;;6.65;;
46210;SDS011;52144;48.040;-1.594;2022-12-15T03:56:53;11.32;;;6.78;;
46210;SDS011;52144;48.040;-1.594;2022-12-15T03:59:21;12.25;;;6.95;;
46210;SDS011;52144;48.040;-1.594;2022-12-15T04:01:49;10.05;;;7.40;;
46210;SDS011;52144;48.040;-1.594;2022-12-15T04:04:17;10.77;;;6.50;;
46210;SDS011;52144;48.040;-1.594;2022-12-15T04:06:44;12.07;;;7.05;;
46210;SDS011;52144;48.040;-1.594;2022-12-15T04:09:12;13.50;;;7.00;;
46210;SDS011;52144;48.040;-1.594;2022-12-15T04:11:41;12.80;;;7.25;;
46210;SDS011;52144;48.040;-1.594;2022-12-15T04:14:09;13.02;;;5.82;;
46210;SDS011;52144;48.040;-1.594;2022-12-15T04:16:37;15.05;;;7.68;;
46210;SDS011;52144;48.040;-1.594;2022-12-15T04:19:05;10.65;;;5.63;;
46210;SDS011;52144;48.040;-1.594;2022-12-15T04:21:50;12.20;;;5.55;;
46210;SDS011;52144;48.040;-1.594;2022-12-15T04:24:18;12.38;;;7.40;;
46210;SDS011;52144;48.040;-1.594;2022-12-15T04:27:04;8.55;;;5.00;;
46210;SDS011;52144;48.040;-1.594;2022-12-15T04:29:49;14.68;;;5.13;;
46210;SDS011;52144;48.040;-1.594;2022-12-15T04:32:35;8.90;;;5.25;;
46210;SDS011;52144;48.040;-1.594;2022-12-15T04:35:20;7.43;;;5.75;;
46210;SDS011;52144;48.040;-1.594;2022-12-15T04:38:05;10.60;;;6.05;;
46210;SDS011;52144;48.040;-1.594;2022-12-15T04:40:51;11.55;;;5.00;;
46210;SDS011;52144;48.040;-1.594;2022-12-15T04:43:37;8.30;;;5.40;;
46210;SDS011;52144;48.040;-1.594;2022-12-15T04:46:23;11.32;;;5.53;;
46210;SDS011;52144;48.040;-1.594;2022-12-15T04:49:08;9.57;;;6.22;;
46210;SDS011;52144;48.040;-1.594;2022-12-15T04:51:54;10.48;;;5.82;;
46210;SDS011;52144;48.040;-1.594;2022-12-15T04:54:39;10.63;;;4.63;;
46210;SDS011;52144;48.040;-1.594;2022-12-15T04:57:24;13.13;;;5.07;;
46210;SDS011;52144;48.040;-1.594;2022-12-15T05:00:11;8.13;;;5.78;;
46210;SDS011;52144;48.040;-1.594;2022-12-15T05:03:02;10.02;;;4.97;;
46210;SDS011;52144;48.040;-1.594;2022-12-15T05:05:48;5.97;;;3.85;;
46210;SDS011;52144;48.040;-1.594;2022-12-15T05:08:33;8.55;;;4.13;;
46210;SDS011;52144;48.040;-1.594;2022-12-15T05:11:19;7.55;;;3.88;;
46210;SDS011;52144;48.040;-1.594;2022-12-15T05:14:04;6.18;;;3.88;;
46210;SDS011;52144;48.040;-1.594;2022-12-15T05:16:51;9.35;;;4.60;;
46210;SDS011;52144;48.040;-1.594;2022-12-15T05:19:36;6.53;;;4.15;;
46210;SDS011;52144;48.040;-1.594;2022-12-15T05:22:22;6.47;;;4.57;;
46210;SDS011;52144;48.040;-1.594;2022-12-15T05:25:07;6.78;;;3.65;;
46210;SDS011;52144;48.040;-1.594;2022-12-15T05:27:52;10.68;;;3.85;;
46210;SDS011;52144;48.040;-1.594;2022-12-15T05:30:38;6.95;;;4.55;;
46210;SDS011;52144;48.040;-1.594;2022-12-15T05:33:25;9.15;;;4.07;;
46210;SDS011;52144;48.040;-1.594;2022-12-15T05:35:54;6.25;;;4.18;;
46210;SDS011;52144;48.040;-1.594;2022-12-15T05:38:22;7.35;;;4.40;;
46210;SDS011;52144;48.040;-1.594;2022-12-15T05:40:50;9.05;;;4.63;;
46210;SDS011;52144;48.040;-1.594;2022-12-15T05:43:18;8.93;;;4.30;;
46210;SDS011;52144;48.040;-1.594;2022-12-15T05:45:51;8.18;;;3.35;;
46210;SDS011;52144;48.040;-1.594;2022-12-15T05:48:19;7.15;;;3.35;;
46210;SDS011;52144;48.040;-1.594;2022-12-15T05:50:48;3.60;;;3.03;;
46210;SDS011;52144;48.040;-1.594;2022-12-15T05:53:16;4.63;;;3.40;;
46210;SDS011;52144;48.040;-1.594;2022-12-15T05:55:44;5.20;;;4.25;;
46210;SDS011;52144;48.040;-1.594;2022-12-15T05:58:12;5.93;;;3.45;;
46210;SDS011;52144;48.040;-1.594;2022-12-15T06:00:40;8.15;;;3.90;;
46210;SDS011;52144;48.040;-1.594;2022-12-15T06:03:08;9.05;;;4.95;;
46210;SDS011;52144;48.040;-1.594;2022-12-15T06:05:35;8.32;;;3.45;;
46210;SDS011;52144;48.040;-1.594;2022-12-15T06:08:05;7.47;;;3.75;;
46210;SDS011;52144;48.040;-1.594;2022-12-15T06:10:33;8.13;;;3.97;;
46210;SDS011;52144;48.040;-1.594;2022-12-15T06:13:00;10.65;;;3.40;;
46210;SDS011;52144;48.040;-1.594;2022-12-15T06:15:28;7.90;;;4.05;;
46210;SDS011;52144;48.040;-1.594;2022-12-15T06:17:56;9.52;;;4.18;;
46210;SDS011;52144;48.040;-1.594;2022-12-15T06:20:24;7.88;;;3.88;;
46210;SDS011;52144;48.040;-1.594;2022-12-15T06:22:52;9.25;;;4.88;;
46210;SDS011;52144;48.040;-1.594;2022-12-15T06:25:21;5.55;;;3.97;;
46210;SDS011;52144;48.040;-1.594;2022-12-15T06:27:49;4.95;;;3.33;;
46210;SDS011;52144;48.040;-1.594;2022-12-15T06:30:16;7.25;;;3.65;;
46210;SDS011;52144;48.040;-1.594;2022-12-15T06:32:44;4.47;;;3.55;;
46210;SDS011;52144;48.040;-1.594;2022-12-15T06:35:15;12.85;;;4.50;;
46210;SDS011;52144;48.040;-1.594;2022-12-15T06:37:43;6.82;;;4.20;;
46210;SDS011;52144;48.040;-1.594;2022-12-15T06:40:10;8.75;;;3.83;;
46210;SDS011;52144;48.040;-1.594;2022-12-15T06:42:40;6.72;;;4.18;;
46210;SDS011;52144;48.040;-1.594;2022-12-15T06:45:08;8.07;;;4.22;;
46210;SDS011;52144;48.040;-1.594;2022-12-15T06:47:36;8.00;;;4.28;;
46210;SDS011;52144;48.040;-1.594;2022-12-15T06:50:04;10.13;;;4.47;;
46210;SDS011;52144;48.040;-1.594;2022-12-15T06:52:33;6.43;;;5.05;;
46210;SDS011;52144;48.040;-1.594;2022-12-15T06:55:01;10.98;;;5.28;;
46210;SDS011;52144;48.040;-1.594;2022-12-15T06:57:28;5.88;;;3.50;;
46210;SDS011;52144;48.040;-1.594;2022-12-15T06:59:58;7.63;;;3.05;;
46210;SDS011;52144;48.040;-1.594;2022-12-15T07:02:26;7.88;;;4.95;;
46210;SDS011;52144;48.040;-1.594;2022-12-15T07:04:55;3.47;;;2.97;;
46210;SDS011;52144;48.040;-1.594;2022-12-15T07:07:23;7.15;;;3.95;;
46210;SDS011;52144;48.040;-1.594;2022-12-15T07:09:51;7.15;;;3.63;;
46210;SDS011;52144;48.040;-1.594;2022-12-15T07:12:19;6.75;;;4.15;;
46210;SDS011;52144;48.040;-1.594;2022-12-15T07:14:47;5.63;;;4.43;;
46210;SDS011;52144;48.040;-1.594;2022-12-15T07:17:20;8.05;;;4.15;;
46210;SDS011;52144;48.040;-1.594;2022-12-15T07:19:49;7.18;;;3.85;;
46210;SDS011;52144;48.040;-1.594;2022-12-15T07:22:17;6.88;;;4.13;;
46210;SDS011;52144;48.040;-1.594;2022-12-15T07:24:46;8.52;;;3.55;;
46210;SDS011;52144;48.040;-1.594;2022-12-15T07:27:13;4.97;;;3.78;;
46210;SDS011;52144;48.040;-1.594;2022-12-15T07:29:43;7.40;;;4.13;;
46210;SDS011;52144;48.040;-1.594;2022-12-15T07:32:11;7.75;;;4.18;;
46210;SDS011;52144;48.040;-1.594;2022-12-15T07:34:40;8.90;;;5.43;;
46210;SDS011;52144;48.040;-1.594;2022-12-15T07:37:08;7.38;;;4.75;;
46210;SDS011;52144;48.040;-1.594;2022-12-15T07:39:36;8.52;;;4.50;;
46210;SDS011;52144;48.040;-1.594;2022-12-15T07:42:04;6.43;;;4.65;;
46210;SDS011;52144;48.040;-1.594;2022-12-15T07:44:31;10.07;;;4.32;;
46210;SDS011;52144;48.040;-1.594;2022-12-15T07:46:59;6.75;;;3.80;;
46210;SDS011;52144;48.040;-1.594;2022-12-15T07:49:27;8.40;;;4.20;;
46210;SDS011;52144;48.040;-1.594;2022-12-15T07:51:56;6.25;;;3.65;;
46210;SDS011;52144;48.040;-1.594;2022-12-15T07:54:24;12.82;;;4.53;;
46210;SDS011;52144;48.040;-1.594;2022-12-15T07:56:52;5.38;;;3.95;;
46210;SDS011;52144;48.040;-1.594;2022-12-15T07:59:20;6.63;;;3.90;;
46210;SDS011;52144;48.040;-1.594;2022-12-15T08:01:48;11.68;;;3.90;;
46210;SDS011;52144;48.040;-1.594;2022-12-15T08:04:17;6.28;;;3.88;;
46210;SDS011;52144;48.040;-1.594;2022-12-15T08:06:45;4.50;;;4.00;;
46210;SDS011;52144;48.040;-1.594;2022-12-15T08:09:15;8.57;;;3.45;;
46210;SDS011;52144;48.040;-1.594;2022-12-15T08:11:42;10.18;;;4.47;;
46210;SDS011;52144;48.040;-1.594;2022-12-15T08:14:10;7.55;;;3.83;;
46210;SDS011;52144;48.040;-1.594;2022-12-15T08:16:43;6.13;;;3.53;;
46210;SDS011;52144;48.040;-1.594;2022-12-15T08:19:12;7.28;;;4.18;;
46210;SDS011;52144;48.040;-1.594;2022-12-15T08:21:41;7.93;;;4.10;;
46210;SDS011;52144;48.040;-1.594;2022-12-15T08:24:10;3.97;;;3.53;;
46210;SDS011;52144;48.040;-1.594;2022-12-15T08:26:41;8.10;;;4.20;;
46210;SDS011;52144;48.040;-1.594;2022-12-15T08:29:15;5.65;;;3.47;;
46210;SDS011;52144;48.040;-1.594;2022-12-15T08:32:03;4.32;;;3.38;;
46210;SDS011;52144;48.040;-1.594;2022-12-15T08:34:32;10.63;;;4.38;;
46210;SDS011;52144;48.040;-1.594;2022-12-15T08:37:00;6.10;;;4.85;;
46210;SDS011;52144;48.040;-1.594;2022-12-15T08:39:28;8.43;;;4.47;;
46210;SDS011;52144;48.040;-1.594;2022-12-15T08:41:58;8.98;;;4.22;;
46210;SDS011;52144;48.040;-1.594;2022-12-15T08:44:25;7.70;;;4.80;;
46210;SDS011;52144;48.040;-1.594;2022-12-15T08:46:53;8.35;;;4.75;;
46210;SDS011;52144;48.040;-1.594;2022-12-15T08:49:21;7.30;;;3.92;;
46210;SDS011;52144;48.040;-1.594;2022-12-15T08:51:49;3.47;;;3.05;;
46210;SDS011;52144;48.040;-1.594;2022-12-15T08:54:17;8.70;;;5.68;;
46210;SDS011;52144;48.040;-1.594;2022-12-15T08:56:46;6.68;;;4.30;;
46210;SDS011;52144;48.040;-1.594;2022-12-15T08:59:16;9.70;;;4.43;;
46210;SDS011;52144;48.040;-1.594;2022-12-15T09:01:45;11.70;;;3.65;;
46210;SDS011;52144;48.040;-1.594;2022-12-15T09:04:13;6.50;;;4.10;;
46210;SDS011;52144;48.040;-1.594;2022-12-15T09:06:41;8.10;;;3.53;;
46210;SDS011;52144;48.040;-1.594;2022-12-15T09:09:16;6.75;;;3.90;;
46210;SDS011;52144;48.040;-1.594;2022-12-15T09:11:44;10.35;;;4.00;;
46210;SDS011;52144;48.040;-1.594;2022-12-15T09:14:17;4.35;;;3.88;;
46210;SDS011;52144;48.040;-1.594;2022-12-15T09:16:54;9.30;;;3.78;;
46210;SDS011;52144;48.040;-1.594;2022-12-15T09:19:22;5.93;;;4.05;;
46210;SDS011;52144;48.040;-1.594;2022-12-15T09:21:50;4.80;;;2.85;;
46210;SDS011;52144;48.040;-1.594;2022-12-15T09:24:18;6.30;;;3.30;;
46210;SDS011;52144;48.040;-1.594;2022-12-15T09:26:59;11.23;;;5.53;;
46210;SDS011;52144;48.040;-1.594;2022-12-15T09:29:29;9.95;;;3.78;;
46210;SDS011;52144;48.040;-1.594;2022-12-15T09:31:57;7.18;;;3.78;;
46210;SDS011;52144;48.040;-1.594;2022-12-15T09:34:25;7.90;;;3.97;;
46210;SDS011;52144;48.040;-1.594;2022-12-15T09:36:53;7.22;;;3.83;;
46210;SDS011;52144;48.040;-1.594;2022-12-15T09:39:21;4.40;;;2.97;;
46210;SDS011;52144;48.040;-1.594;2022-12-15T09:41:51;9.52;;;4.70;;
46210;SDS011;52144;48.040;-1.594;2022-12-15T09:44:25;7.28;;;3.08;;
46210;SDS011;52144;48.040;-1.594;2022-12-15T09:47:00;7.55;;;4.05;;
46210;SDS011;52144;48.040;-1.594;2022-12-15T09:49:38;6.50;;;3.05;;
46210;SDS011;52144;48.040;-1.594;2022-12-15T09:52:14;9.32;;;3.78;;
46210;SDS011;52144;48.040;-1.594;2022-12-15T09:54:43;4.10;;;3.00;;
46210;SDS011;52144;48.040;-1.594;2022-12-15T09:57:15;7.63;;;4.00;;
46210;SDS011;52144;48.040;-1.594;2022-12-15T09:59:55;5.22;;;2.97;;
46210;SDS011;52144;48.040;-1.594;2022-12-15T10:05:43;6.57;;;3.13;;
46210;SDS011;52144;48.040;-1.594;2022-12-15T10:08:39;6.22;;;3.40;;
46210;SDS011;52144;48.040;-1.594;2022-12-15T10:11:15;9.65;;;3.10;;
46210;SDS011;52144;48.040;-1.594;2022-12-15T10:13:50;6.32;;;3.50;;
46210;SDS011;52144;48.040;-1.594;2022-12-15T10:16:24;6.72;;;4.13;;
46210;SDS011;52144;48.040;-1.594;2022-12-15T10:18:59;6.10;;;4.25;;
46210;SDS011;52144;48.040;-1.594;2022-12-15T10:21:34;17.02;;;4.72;;
46210;SDS011;52144;48.040;-1.594;2022-12-15T10:24:11;4.72;;;3.10;;
46210;SDS011;52144;48.040;-1.594;2022-12-15T10:27:05;4.60;;;3.13;;
46210;SDS011;52144;48.040;-1.594;2022-12-15T10:29:45;8.25;;;4.18;;
46210;SDS011;52144;48.040;-1.594;2022-12-15T10:32:19;5.05;;;3.13;;
46210;SDS011;52144;48.040;-1.594;2022-12-15T10:34:51;4.68;;;2.72;;
46210;SDS011;52144;48.040;-1.594;2022-12-15T10:37:21;6.55;;;3.05;;
46210;SDS011;52144;48.040;-1.594;2022-12-15T10:39:49;3.90;;;2.60;;
46210;SDS011;52144;48.040;-1.594;2022-12-15T10:42:18;6.28;;;4.13;;
46210;SDS011;52144;48.040;-1.594;2022-12-15T10:44:48;6.38;;;2.90;;
46210;SDS011;52144;48.040;-1.594;2022-12-15T10:47:21;6.15;;;3.83;;
46210;SDS011;52144;48.040;-1.594;2022-12-15T10:49:51;3.33;;;3.03;;
46210;SDS011;52144;48.040;-1.594;2022-12-15T10:52:26;5.03;;;3.85;;
46210;SDS011;52144;48.040;-1.594;2022-12-15T10:55:00;5.72;;;3.05;;
46210;SDS011;52144;48.040;-1.594;2022-12-15T10:57:29;4.95;;;3.42;;
46210;SDS011;52144;48.040;-1.594;2022-12-15T11:00:18;7.82;;;3.58;;
46210;SDS011;52144;48.040;-1.594;2022-12-15T11:02:53;8.30;;;3.40;;
46210;SDS011;52144;48.040;-1.594;2022-12-15T11:05:22;7.55;;;3.70;;
46210;SDS011;52144;48.040;-1.594;2022-12-15T11:07:51;6.82;;;3.13;;
46210;SDS011;52144;48.040;-1.594;2022-12-15T11:10:21;6.85;;;3.42;;
46210;SDS011;52144;48.040;-1.594;2022-12-15T11:12:55;9.13;;;3.50;;
46210;SDS011;52144;48.040;-1.594;2022-12-15T11:15:42;5.75;;;3.22;;
46210;SDS011;52144;48.040;-1.594;2022-12-15T11:18:23;4.07;;;2.78;;
46210;SDS011;52144;48.040;-1.594;2022-12-15T11:21:00;7.25;;;3.25;;
46210;SDS011;52144;48.040;-1.594;2022-12-15T11:23:35;5.23;;;2.83;;
46210;SDS011;52144;48.040;-1.594;2022-12-15T11:26:22;9.65;;;2.70;;
46210;SDS011;52144;48.040;-1.594;2022-12-15T11:28:58;9.25;;;3.47;;
46210;SDS011;52144;48.040;-1.594;2022-12-15T11:31:33;4.15;;;2.45;;
46210;SDS011;52144;48.040;-1.594;2022-12-15T11:34:09;5.43;;;3.63;;
46210;SDS011;52144;48.040;-1.594;2022-12-15T11:36:50;6.43;;;2.92;;
46210;SDS011;52144;48.040;-1.594;2022-12-15T11:39:30;4.82;;;2.65;;
46210;SDS011;52144;48.040;-1.594;2022-12-15T11:42:08;4.57;;;2.83;;
46210;SDS011;52144;48.040;-1.594;2022-12-15T11:44:47;7.25;;;3.00;;
46210;SDS011;52144;48.040;-1.594;2022-12-15T11:47:26;6.50;;;3.38;;
46210;SDS011;52144;48.040;-1.594;2022-12-15T11:50:10;5.35;;;2.58;;
46210;SDS011;52144;48.040;-1.594;2022-12-15T11:55:41;5.88;;;3.20;;
46210;SDS011;52144;48.040;-1.594;2022-12-15T11:58:20;5.20;;;3.20;;
46210;SDS011;52144;48.040;-1.594;2022-12-15T12:01:01;5.47;;;2.75;;
46210;SDS011;52144;48.040;-1.594;2022-12-15T12:03:36;7.47;;;3.28;;
46210;SDS011;52144;48.040;-1.594;2022-12-15T12:06:16;3.22;;;2.17;;
46210;SDS011;52144;48.040;-1.594;2022-12-15T12:08:55;3.15;;;2.42;;
46210;SDS011;52144;48.040;-1.594;2022-12-15T12:11:42;6.57;;;3.13;;
46210;SDS011;52144;48.040;-1.594;2022-12-15T12:14:18;3.90;;;2.70;;
46210;SDS011;52144;48.040;-1.594;2022-12-15T12:17:00;6.15;;;3.05;;
46210;SDS011;52144;48.040;-1.594;2022-12-15T12:19:33;3.85;;;2.83;;
46210;SDS011;52144;48.040;-1.594;2022-12-15T12:22:10;3.58;;;2.22;;
46210;SDS011;52144;48.040;-1.594;2022-12-15T12:24:46;9.02;;;3.13;;
46210;SDS011;52144;48.040;-1.594;2022-12-15T12:27:23;4.60;;;2.72;;
46210;SDS011;52144;48.040;-1.594;2022-12-15T12:29:58;5.65;;;3.13;;
46210;SDS011;52144;48.040;-1.594;2022-12-15T12:32:32;4.80;;;3.25;;
46210;SDS011;52144;48.040;-1.594;2022-12-15T12:35:10;6.63;;;2.33;;
46210;SDS011;52144;48.040;-1.594;2022-12-15T12:38:03;5.28;;;3.05;;
46210;SDS011;52144;48.040;-1.594;2022-12-15T12:40:36;5.55;;;2.92;;
46210;SDS011;52144;48.040;-1.594;2022-12-15T12:43:19;4.53;;;2.75;;
46210;SDS011;52144;48.040;-1.594;2022-12-15T12:45:59;4.57;;;2.55;;
46210;SDS011;52144;48.040;-1.594;2022-12-15T12:48:34;4.47;;;2.40;;
46210;SDS011;52144;48.040;-1.594;2022-12-15T12:51:09;3.05;;;2.58;;
46210;SDS011;52144;48.040;-1.594;2022-12-15T12:53:44;3.10;;;2.42;;
46210;SDS011;52144;48.040;-1.594;2022-12-15T12:56:27;4.22;;;2.10;;
46210;SDS011;52144;48.040;-1.594;2022-12-15T12:59:03;5.20;;;2.85;;
46210;SDS011;52144;48.040;-1.594;2022-12-15T13:01:51;6.15;;;2.58;;
46210;SDS011;52144;48.040;-1.594;2022-12-15T13:04:36;4.78;;;2.88;;
46210;SDS011;52144;48.040;-1.594;2022-12-15T13:07:23;4.22;;;2.80;;
46210;SDS011;52144;48.040;-1.594;2022-12-15T13:10:00;4.03;;;2.47;;
46210;SDS011;52144;48.040;-1.594;2022-12-15T13:12:45;6.25;;;2.90;;
46210;SDS011;52144;48.040;-1.594;2022-12-15T13:15:24;5.35;;;2.72;;
46210;SDS011;52144;48.040;-1.594;2022-12-15T13:18:06;2.60;;;1.98;;
46210;SDS011;52144;48.040;-1.594;2022-12-15T13:20:41;2.72;;;2.05;;
46210;SDS011;52144;48.040;-1.594;2022-12-15T13:23:31;5.43;;;2.58;;
46210;SDS011;52144;48.040;-1.594;2022-12-15T13:26:10;3.28;;;2.47;;
46210;SDS011;52144;48.040;-1.594;2022-12-15T13:28:43;4.85;;;2.47;;
46210;SDS011;52144;48.040;-1.594;2022-12-15T13:31:29;5.40;;;1.83;;
46210;SDS011;52144;48.040;-1.594;2022-12-15T13:34:04;4.20;;;2.22;;
46210;SDS011;52144;48.040;-1.594;2022-12-15T13:36:43;2.85;;;2.58;;
46210;SDS011;52144;48.040;-1.594;2022-12-15T13:39:30;2.70;;;1.98;;
46210;SDS011;52144;48.040;-1.594;2022-12-15T13:42:22;3.00;;;2.00;;
46210;SDS011;52144;48.040;-1.594;2022-12-15T13:48:01;4.60;;;2.17;;
46210;SDS011;52144;48.040;-1.594;2022-12-15T13:50:39;2.60;;;1.77;;
46210;SDS011;52144;48.040;-1.594;2022-12-15T13:53:17;3.50;;;2.35;;
46210;SDS011;52144;48.040;-1.594;2022-12-15T13:56:02;2.53;;;2.33;;
46210;SDS011;52144;48.040;-1.594;2022-12-15T13:58:45;3.33;;;1.77;;
46210;SDS011;52144;48.040;-1.594;2022-12-15T14:01:19;3.03;;;1.63;;
46210;SDS011;52144;48.040;-1.594;2022-12-15T14:04:02;4.13;;;2.03;;
46210;SDS011;52144;48.040;-1.594;2022-12-15T14:06:35;5.93;;;2.88;;
46210;SDS011;52144;48.040;-1.594;2022-12-15T14:09:05;5.03;;;2.55;;
46210;SDS011;52144;48.040;-1.594;2022-12-15T14:11:39;2.08;;;1.90;;
46210;SDS011;52144;48.040;-1.594;2022-12-15T14:14:20;6.00;;;2.72;;
46210;SDS011;52144;48.040;-1.594;2022-12-15T14:16:51;4.75;;;2.47;;
46210;SDS011;52144;48.040;-1.594;2022-12-15T14:19:25;6.50;;;2.83;;
46210;SDS011;52144;48.040;-1.594;2022-12-15T14:22:00;1.88;;;1.42;;
46210;SDS011;52144;48.040;-1.594;2022-12-15T14:24:28;3.60;;;2.08;;
46210;SDS011;52144;48.040;-1.594;2022-12-15T14:27:06;1.92;;;1.60;;
46210;SDS011;52144;48.040;-1.594;2022-12-15T14:29:34;3.42;;;2.25;;
46210;SDS011;52144;48.040;-1.594;2022-12-15T14:32:02;5.45;;;3.05;;
46210;SDS011;52144;48.040;-1.594;2022-12-15T14:34:34;2.55;;;1.83;;
46210;SDS011;52144;48.040;-1.594;2022-12-15T14:37:07;4.47;;;2.63;;
46210;SDS011;52144;48.040;-1.594;2022-12-15T14:39:41;3.42;;;1.95;;
46210;SDS011;52144;48.040;-1.594;2022-12-15T14:42:13;5.78;;;3.13;;
46210;SDS011;52144;48.040;-1.594;2022-12-15T14:47:19;6.88;;;2.53;;
46210;SDS011;52144;48.040;-1.594;2022-12-15T14:49:53;3.65;;;2.38;;
46210;SDS011;52144;48.040;-1.594;2022-12-15T14:52:25;5.65;;;2.35;;
46210;SDS011;52144;48.040;-1.594;2022-12-15T14:54:55;4.57;;;3.00;;
46210;SDS011;52144;48.040;-1.594;2022-12-15T14:57:25;3.35;;;1.70;;
46210;SDS011;52144;48.040;-1.594;2022-12-15T14:59:54;13.32;;;1.90;;
46210;SDS011;52144;48.040;-1.594;2022-12-15T15:02:23;3.22;;;2.40;;
46210;SDS011;52144;48.040;-1.594;2022-12-15T15:04:56;3.03;;;2.42;;
46210;SDS011;52144;48.040;-1.594;2022-12-15T15:07:29;4.30;;;2.10;;
46210;SDS011;52144;48.040;-1.594;2022-12-15T15:09:58;10.90;;;2.88;;
46210;SDS011;52144;48.040;-1.594;2022-12-15T15:12:38;4.68;;;2.40;;
46210;SDS011;52144;48.040;-1.594;2022-12-15T15:15:13;4.55;;;1.88;;
46210;SDS011;52144;48.040;-1.594;2022-12-15T15:17:43;2.88;;;2.03;;
46210;SDS011;52144;48.040;-1.594;2022-12-15T15:20:19;2.43;;;1.60;;
46210;SDS011;52144;48.040;-1.594;2022-12-15T15:23:01;3.33;;;2.17;;
46210;SDS011;52144;48.040;-1.594;2022-12-15T15:25:38;3.97;;;2.08;;
46210;SDS011;52144;48.040;-1.594;2022-12-15T15:28:13;3.25;;;1.80;;
46210;SDS011;52144;48.040;-1.594;2022-12-15T15:30:47;2.70;;;1.90;;
46210;SDS011;52144;48.040;-1.594;2022-12-15T15:33:21;5.47;;;1.55;;